Time;durP1;ratioP1;P1;durP2;ratioP2;P2;SDS_P1;SDS_P2;PMS_P1;PMS_P2;Temp;Humidity;BMP_temperature;BMP_pressure;BME280_temperature;BME280_humidity;BME280_pressure;Samples;Min_cycle;Max_cycle;Signal;HPM_P1;HPM_P2
2022/10/08 00:00:50;;;;;;;6.20;2.47;;;;;;;18.19;44.31;99458.00;5036140;28;20037;-73
2022/10/08 00:03:16;;;;;;;8.32;2.95;;;;;;;18.22;44.53;99455.06;5072147;28;20547;-73
2022/10/08 00:05:41;;;;;;;6.35;2.78;;;;;;;18.20;44.36;99456.19;5039512;28;20037;-73
2022/10/08 00:08:07;;;;;;;5.97;2.50;;;;;;;18.21;44.59;99452.56;5056160;28;20028;-73
2022/10/08 00:10:33;;;;;;;5.78;2.60;;;;;;;18.20;44.64;99449.09;5056091;28;20091;-74
2022/10/08 00:12:59;;;;;;;3.75;2.15;;;;;;;18.19;44.51;99441.31;5038965;28;20025;-74
2022/10/08 00:15:25;;;;;;;3.67;2.30;;;;;;;18.20;44.55;99437.69;5072595;28;20036;-74
2022/10/08 00:17:51;;;;;;;6.50;2.47;;;;;;;18.16;44.59;99428.41;5055322;28;20076;-74
2022/10/08 00:20:16;;;;;;;4.13;2.65;;;;;;;18.06;44.65;99409.97;5054944;28;20494;-74
2022/10/08 00:22:42;;;;;;;4.22;2.50;;;;;;;18.21;44.55;99428.78;5073426;28;20112;-75
2022/10/08 00:25:09;;;;;;;6.68;2.60;;;;;;;18.19;44.56;99420.19;5055609;28;20531;-74
2022/10/08 00:27:34;;;;;;;4.30;2.22;;;;;;;18.23;44.42;99418.88;5038827;28;20028;-74
2022/10/08 00:30:00;;;;;;;4.35;2.45;;;;;;;18.21;44.56;99411.09;5073486;28;20035;-74
2022/10/08 00:32:26;;;;;;;6.22;2.53;;;;;;;18.24;44.64;99413.44;5055272;28;20037;-74
2022/10/08 00:34:51;;;;;;;4.28;2.08;;;;;;;18.21;44.64;99399.72;5072142;28;20090;-74
2022/10/08 00:37:16;;;;;;;3.22;2.30;;;;;;;18.26;44.51;99419.44;5038861;28;20484;-74
2022/10/08 00:39:43;;;;;;;5.80;2.20;;;;;;;18.24;44.60;99408.16;5038715;28;20035;-74
2022/10/08 00:42:10;;;;;;;5.65;2.50;;;;;;;18.26;44.67;99410.66;5071781;28;20111;-74
2022/10/08 00:44:53;;;;;;;6.32;2.50;;;;;;;18.25;44.74;99414.31;5055348;28;20111;-74
2022/10/08 00:47:40;;;;;;;9.15;2.60;;;;;;;18.22;44.92;99415.41;5073065;28;20125;-74
2022/10/08 00:50:13;;;;;;;6.65;2.45;;;;;;;18.18;44.87;99403.47;5073227;28;20028;-75
2022/10/08 00:52:42;;;;;;;4.82;2.60;;;;;;;18.21;44.89;99407.66;5071799;28;20070;-75
2022/10/08 00:55:08;;;;;;;7.03;2.30;;;;;;;18.21;44.73;99405.81;5055108;28;20064;-75
2022/10/08 00:57:34;;;;;;;6.20;2.50;;;;;;;18.23;44.94;99397.75;5071745;28;20024;-74
2022/10/08 01:00:05;;;;;;;6.22;2.40;;;;;;;18.22;44.71;99401.41;5055024;28;20024;-74
2022/10/08 01:02:30;;;;;;;4.75;2.42;;;;;;;18.21;44.48;99392.63;5071869;28;20025;-75
2022/10/08 01:04:56;;;;;;;7.57;2.85;;;;;;;18.21;44.65;99395.25;5054898;28;20415;-74
2022/10/08 01:07:36;;;;;;;7.13;2.22;;;;;;;18.21;44.65;99395.25;5055285;28;20036;-74
2022/10/08 01:10:06;;;;;;;5.55;2.60;;;;;;;18.22;44.77;99393.47;5055807;28;20032;-74
2022/10/08 01:13:00;;;;;;;3.78;2.30;;;;;;;18.22;44.78;99393.47;5054517;28;20029;-73
2022/10/08 01:15:32;;;;;;;7.65;2.78;;;;;;;18.19;44.82;99394.59;5054062;28;20064;-74
2022/10/08 01:18:27;;;;;;;5.43;2.40;;;;;;;18.16;44.89;99389.59;5036987;28;20056;-76
2022/10/08 01:20:53;;;;;;;4.13;2.40;;;;;;;18.08;45.08;99381.59;5066570;28;20535;-74
2022/10/08 01:23:21;;;;;;;6.25;2.38;;;;;;;18.01;45.11;99377.88;5070129;28;20036;-74
2022/10/08 01:25:54;;;;;;;3.15;2.05;;;;;;;18.00;44.94;99381.50;5070350;28;20040;-75
2022/10/08 01:28:25;;;;;;;5.43;2.40;;;;;;;18.03;44.99;99381.22;5053449;28;20102;-74
2022/10/08 01:31:07;;;;;;;6.30;2.50;;;;;;;17.94;45.03;99376.81;5053146;28;20035;-74
2022/10/08 01:33:38;;;;;;;8.30;2.40;;;;;;;17.96;45.33;99388.88;5055212;28;20059;-75
2022/10/08 01:36:04;;;;;;;4.93;2.50;;;;;;;17.93;44.95;99377.78;5053038;28;20075;-74
2022/10/08 01:38:32;;;;;;;5.10;2.40;;;;;;;17.92;45.30;99382.25;5032071;28;20448;-75
2022/10/08 01:40:59;;;;;;;6.30;2.30;;;;;;;17.87;45.40;99373.91;5033082;28;20048;-75
2022/10/08 01:43:26;;;;;;;4.78;2.47;;;;;;;17.82;45.59;99374.38;5033177;28;20037;-74
2022/10/08 01:45:55;;;;;;;4.10;2.28;;;;;;;17.75;45.71;99373.28;5017133;28;20041;-73
2022/10/08 01:48:23;;;;;;;4.60;2.42;;;;;;;17.76;45.73;99382.88;5032940;28;20123;-74
2022/10/08 01:51:01;;;;;;;4.22;2.60;;;;;;;17.67;46.08;99365.28;5033611;28;20124;-74
2022/10/08 01:53:32;;;;;;;5.45;2.53;;;;;;;17.67;45.99;99373.19;5035095;28;20043;-75
2022/10/08 01:55:57;;;;;;;3.05;2.30;;;;;;;17.58;46.18;99371.44;5018920;28;20036;-75
2022/10/08 01:58:37;;;;;;;4.78;2.50;;;;;;;17.58;46.12;99372.25;5017359;28;20037;-75
2022/10/08 02:01:11;;;;;;;4.43;2.38;;;;;;;17.60;46.14;99378.22;5034856;28;20048;-74
2022/10/08 02:03:36;;;;;;;8.02;2.60;;;;;;;17.62;46.05;99375.44;5034063;28;20497;-74
2022/10/08 02:06:02;;;;;;;5.30;1.90;;;;;;;17.61;46.12;99374.59;5034111;28;20066;-75
2022/10/08 02:08:28;;;;;;;3.20;2.40;;;;;;;17.63;45.79;99374.44;5034090;28;20132;-76
2022/10/08 02:10:53;;;;;;;6.07;2.10;;;;;;;17.58;45.83;99364.34;5034394;28;20032;-75
2022/10/08 02:13:19;;;;;;;3.97;2.45;;;;;;;17.61;45.98;99371.13;5050687;28;20064;-75
2022/10/08 02:15:51;;;;;;;2.97;2.00;;;;;;;17.65;45.78;99383.06;5034230;28;20114;-74
2022/10/08 02:18:17;;;;;;;4.47;2.20;;;;;;;17.66;45.76;99382.06;5051476;28;20045;-74
2022/10/08 02:20:57;;;;;;;3.13;2.28;;;;;;;17.67;45.72;99384.56;5050842;28;20621;-74
2022/10/08 02:23:25;;;;;;;5.18;2.35;;;;;;;17.61;45.56;99373.78;5017991;28;20507;-74
2022/10/08 02:25:50;;;;;;;4.45;2.20;;;;;;;17.63;45.64;99375.31;5017407;28;20094;-74
2022/10/08 02:28:24;;;;;;;3.42;2.20;;;;;;;17.58;45.58;99377.53;5051616;28;20029;-74
2022/10/08 02:30:56;;;;;;;3.83;2.33;;;;;;;17.59;45.79;99379.19;5050340;28;20025;-74
2022/10/08 02:33:47;;;;;;;9.30;2.30;;;;;;;17.54;45.44;99379.63;5034173;28;20549;-74
2022/10/08 02:36:13;;;;;;;4.65;2.50;;;;;;;17.52;45.76;99375.47;5033976;28;20401;-74
2022/10/08 02:38:48;;;;;;;5.85;2.30;;;;;;;17.53;45.62;99382.44;5034229;28;20036;-74
2022/10/08 02:41:14;;;;;;;3.60;2.53;;;;;;;17.50;45.84;99374.78;5050948;28;20087;-74
2022/10/08 02:43:43;;;;;;;3.78;2.15;;;;;;;17.51;45.76;99379.09;5035750;28;20131;-74
2022/10/08 02:46:14;;;;;;;5.45;2.30;;;;;;;17.51;45.70;99374.66;5021280;28;20033;-74
2022/10/08 02:48:41;;;;;;;4.20;2.25;;;;;;;17.48;45.73;99369.66;5037447;28;20035;-74
2022/10/08 02:51:09;;;;;;;4.97;2.25;;;;;;;17.42;45.54;99357.03;5021530;28;20028;-74
2022/10/08 02:53:36;;;;;;;4.00;2.38;;;;;;;17.52;45.76;99378.97;5037411;28;20036;-74
2022/10/08 02:56:23;;;;;;;8.10;2.67;;;;;;;17.49;45.75;99373.97;5037513;28;20029;-74
2022/10/08 02:58:48;;;;;;;4.82;2.38;;;;;;;17.51;45.61;99377.28;5037904;28;20053;-74
2022/10/08 03:01:27;;;;;;;3.25;2.50;;;;;;;17.52;45.78;99381.59;5053624;28;20045;-74
2022/10/08 03:03:57;;;;;;;3.97;2.70;;;;;;;17.51;45.85;99373.81;5053812;28;20439;-74
2022/10/08 03:06:23;;;;;;;3.83;2.30;;;;;;;17.46;45.97;99361.06;5054143;28;20121;-74
2022/10/08 03:08:48;;;;;;;8.02;2.85;;;;;;;17.51;45.79;99369.38;5054226;28;20100;-74
2022/10/08 03:11:14;;;;;;;5.45;2.50;;;;;;;17.51;45.75;99368.56;5053709;28;20029;-74
2022/10/08 03:13:42;;;;;;;9.77;2.40;;;;;;;17.51;45.87;99368.56;5043350;28;20082;-74
2022/10/08 03:16:07;;;;;;;5.22;2.80;;;;;;;17.53;45.70;99372.69;5037127;28;20029;-75
2022/10/08 03:18:34;;;;;;;6.32;2.28;;;;;;;17.53;45.84;99370.03;5052804;28;20052;-75
2022/10/08 03:21:00;;;;;;;5.05;2.53;;;;;;;17.52;45.78;99365.75;5053570;28;20058;-75
2022/10/08 03:23:25;;;;;;;4.65;2.50;;;;;;;17.56;45.71;99373.41;5036303;28;20072;-75
2022/10/08 03:25:51;;;;;;;3.00;2.30;;;;;;;17.53;45.74;99362.13;5036826;28;20025;-74
2022/10/08 03:28:16;;;;;;;4.03;2.72;;;;;;;17.58;45.77;99366.97;5036931;28;20087;-75
2022/10/08 03:30:42;;;;;;;4.80;2.83;;;;;;;17.53;45.68;99356.03;5036905;28;20044;-75
2022/10/08 03:33:07;;;;;;;7.10;2.70;;;;;;;17.56;45.73;99363.66;5053252;28;20115;-74
2022/10/08 03:35:33;;;;;;;7.63;2.58;;;;;;;17.51;45.75;99361.44;5053402;28;20029;-72
2022/10/08 03:37:58;;;;;;;7.63;2.72;;;;;;;17.54;45.98;99362.97;5053686;28;20073;-74
2022/10/08 03:40:24;;;;;;;6.47;2.60;;;;;;;17.49;46.08;99354.66;5036554;28;20077;-75
2022/10/08 03:42:50;;;;;;;5.53;2.55;;;;;;;17.44;46.37;99354.25;5053064;28;20045;-74
2022/10/08 03:45:15;;;;;;;5.80;2.85;;;;;;;17.46;46.34;99358.44;5053260;28;20128;-75
2022/10/08 03:47:41;;;;;;;4.65;2.65;;;;;;;17.43;46.36;99360.53;5052763;28;20056;-75
2022/10/08 03:50:07;;;;;;;4.20;2.60;;;;;;;17.41;46.36;99357.19;5052395;28;20424;-74
2022/10/08 03:52:32;;;;;;;4.32;2.78;;;;;;;17.36;46.76;99362.91;5052816;28;20029;-75
2022/10/08 03:54:58;;;;;;;4.10;2.58;;;;;;;17.26;46.85;99352.41;5045348;28;20428;-76
2022/10/08 03:57:23;;;;;;;12.77;2.70;;;;;;;17.23;46.87;99346.59;5053297;28;20130;-76
2022/10/08 03:59:49;;;;;;;4.07;2.50;;;;;;;17.19;46.96;99351.31;5036171;28;20055;-76
2022/10/08 04:02:14;;;;;;;5.93;2.78;;;;;;;17.23;47.07;99359.78;5036463;28;20484;-74
2022/10/08 04:04:39;;;;;;;3.92;2.60;;;;;;;17.21;47.13;99361.72;5054197;28;20040;-75
2022/10/08 04:07:05;;;;;;;4.00;2.40;;;;;;;17.15;47.13;99361.31;5053869;28;20032;-74
2022/10/08 04:09:30;;;;;;;5.95;2.90;;;;;;;17.07;47.37;99355.94;5036360;28;20063;-77
2022/10/08 04:11:56;;;;;;;4.32;2.67;;;;;;;17.07;47.42;99361.22;5019374;28;20052;-75
2022/10/08 04:14:21;;;;;;;3.67;2.30;;;;;;;17.05;47.77;99367.63;5019335;28;20412;-76
2022/10/08 04:16:47;;;;;;;3.42;2.47;;;;;;;16.99;47.67;99364.56;5053524;28;20052;-75
2022/10/08 04:19:13;;;;;;;4.55;2.40;;;;;;;16.90;48.07;99361.94;5052529;28;20035;-75
2022/10/08 04:21:38;;;;;;;5.25;2.45;;;;;;;16.88;47.86;99359.44;5035589;28;20040;-74
2022/10/08 04:24:04;;;;;;;4.30;2.55;;;;;;;16.86;48.10;99364.03;5069441;28;20041;-75
2022/10/08 04:26:29;;;;;;;6.68;2.88;;;;;;;16.90;48.09;99369.84;5019116;28;20476;-75
2022/10/08 04:28:55;;;;;;;5.15;2.80;;;;;;;16.94;47.79;99366.78;5035777;28;20033;-74
2022/10/08 04:31:22;;;;;;;3.63;2.63;;;;;;;17.13;47.29;99365.09;5068835;28;20117;-74
2022/10/08 04:33:47;;;;;;;5.15;2.80;;;;;;;17.32;46.91;99358.91;5055835;28;20047;-75
2022/10/08 04:36:17;;;;;;;6.38;2.63;;;;;;;17.61;45.96;99357.94;5055455;28;20016;-75
2022/10/08 04:38:43;;;;;;;3.38;2.58;;;;;;;17.99;45.53;99356.06;5055742;28;20036;-75
2022/10/08 04:41:15;;;;;;;7.22;2.58;;;;;;;18.41;44.34;99356.31;5055337;28;20427;-74
2022/10/08 04:43:41;;;;;;;3.70;2.40;;;;;;;18.85;43.37;99358.16;5055764;28;20051;-74
2022/10/08 04:46:07;;;;;;;4.00;2.63;;;;;;;19.27;42.15;99354.75;5055450;28;20024;-75
2022/10/08 04:48:33;;;;;;;5.13;2.55;;;;;;;19.70;41.18;99352.94;5072015;28;20043;-74
2022/10/08 04:50:59;;;;;;;7.28;2.38;;;;;;;20.19;40.00;99356.72;5071793;28;20116;-75
2022/10/08 04:53:25;;;;;;;5.75;2.58;;;;;;;20.69;39.29;99355.75;5071692;28;20396;-73
2022/10/08 04:55:51;;;;;;;9.07;2.70;;;;;;;21.18;38.11;99349.53;5071820;28;20025;-74
2022/10/08 04:58:17;;;;;;;4.78;2.20;;;;;;;21.62;37.38;99356.22;5038203;28;20123;-69
2022/10/08 05:00:42;;;;;;;2.63;1.60;;;;;;;22.34;38.45;99353.28;5054815;28;20103;-69
2022/10/08 05:03:08;;;;;;;3.35;1.80;;;;;;;23.05;36.84;99358.28;5071040;28;20047;-70
2022/10/08 05:05:38;;;;;;;4.32;1.75;;;;;;;23.72;35.49;99355.69;5068513;28;20388;-71
2022/10/08 05:08:04;;;;;;;4.25;2.30;;;;;;;24.37;33.45;99360.09;5044548;28;20032;-71
2022/10/08 05:10:29;;;;;;;4.68;2.15;;;;;;;24.93;32.21;99359.31;5071667;28;20538;-71
2022/10/08 05:12:55;;;;;;;5.22;2.33;;;;;;;25.24;31.08;99347.41;5054835;28;20046;-70
2022/10/08 05:15:20;;;;;;;5.38;2.40;;;;;;;25.67;30.47;99349.06;5038083;28;20071;-70
2022/10/08 05:17:46;;;;;;;4.32;2.45;;;;;;;26.09;29.50;99344.47;5071262;28;20060;-70
2022/10/08 05:20:11;;;;;;;6.82;2.40;;;;;;;26.49;28.78;99349.03;5071006;28;20032;-69
2022/10/08 05:22:37;;;;;;;4.95;2.50;;;;;;;26.73;28.31;99333.41;5071475;28;20032;-70
2022/10/08 05:25:02;;;;;;;4.78;2.25;;;;;;;26.89;27.90;99344.47;5037920;28;20492;-70
2022/10/08 05:27:28;;;;;;;8.10;2.42;;;;;;;27.11;27.83;99349.59;5071213;28;20029;-72
2022/10/08 05:29:53;;;;;;;9.02;2.67;;;;;;;27.34;27.80;99342.97;5037915;28;20029;-71
2022/10/08 05:32:19;;;;;;;6.57;2.30;;;;;;;27.57;27.31;99343.28;5037748;28;20513;-70
2022/10/08 05:34:44;;;;;;;10.45;2.53;;;;;;;27.90;26.82;99352.22;5054419;28;20039;-71
2022/10/08 05:37:10;;;;;;;8.63;2.38;;;;;;;28.12;26.30;99350.03;5054120;28;20048;-78
2022/10/08 05:39:35;;;;;;;7.05;2.40;;;;;;;28.36;26.82;99351.09;5071018;28;20408;-70
2022/10/08 05:42:01;;;;;;;6.57;2.30;;;;;;;28.45;26.08;99355.16;5071543;28;20028;-69
2022/10/08 05:44:26;;;;;;;3.83;1.98;;;;;;;28.55;25.80;99361.91;5070943;28;20033;-67
2022/10/08 05:46:52;;;;;;;7.32;2.30;;;;;;;28.63;25.86;99365.16;5071647;28;20037;-66
2022/10/08 05:49:19;;;;;;;6.35;2.45;;;;;;;28.67;25.50;99344.88;5071868;28;20028;-67
2022/10/08 05:51:45;;;;;;;8.68;2.50;;;;;;;28.91;25.25;99360.34;5070819;28;20064;-66
2022/10/08 05:54:10;;;;;;;9.85;2.65;;;;;;;28.94;25.39;99359.91;5054342;28;20024;-65
2022/10/08 05:56:36;;;;;;;9.98;2.22;;;;;;;29.00;25.42;99370.63;5070627;28;20032;-66
2022/10/08 05:59:01;;;;;;;4.50;2.10;;;;;;;29.22;25.20;99372.88;5071140;28;20443;-66
2022/10/08 06:01:30;;;;;;;4.95;2.17;;;;;;;29.28;25.52;99358.56;5073823;28;20040;-68
2022/10/08 06:04:04;;;;;;;3.42;1.98;;;;;;;29.48;24.88;99370.97;5038147;28;20024;-65
2022/10/08 06:06:30;;;;;;;6.80;1.80;;;;;;;29.65;23.90;99369.28;5053791;28;20040;-70
2022/10/08 06:08:57;;;;;;;6.90;2.05;;;;;;;29.75;24.16;99366.06;5052889;28;20024;-67
2022/10/08 06:11:26;;;;;;;7.20;2.10;;;;;;;29.86;23.60;99368.00;5071914;28;20033;-65
2022/10/08 06:13:53;;;;;;;8.57;1.98;;;;;;;30.08;23.79;99372.91;5060885;28;19916;-65
2022/10/08 06:16:18;;;;;;;4.68;1.70;;;;;;;30.16;23.37;99374.41;5059083;28;20064;-68
2022/10/08 06:18:44;;;;;;;4.53;2.05;;;;;;;30.28;22.87;99372.56;5059737;28;20501;-65
2022/10/08 06:21:13;;;;;;;6.53;2.30;;;;;;;30.51;23.45;99379.09;5064449;28;20040;-66
2022/10/08 06:23:44;;;;;;;9.13;3.40;;;;;;;30.66;23.23;99376.75;5046312;28;20036;-63
2022/10/08 06:26:10;;;;;;;6.90;3.03;;;;;;;30.79;22.93;99387.31;5064269;28;20028;-65
2022/10/08 06:28:36;;;;;;;5.82;2.90;;;;;;;30.98;23.17;99382.66;5046079;28;20028;-65
2022/10/08 06:31:02;;;;;;;8.35;2.47;;;;;;;31.05;22.21;99387.94;5045839;28;20024;-66
2022/10/08 06:33:27;;;;;;;4.90;2.53;;;;;;;31.11;22.60;99384.28;5047118;28;20453;-65
2022/10/08 06:35:53;;;;;;;3.67;2.10;;;;;;;31.36;22.36;99388.59;5035412;28;20466;-66
2022/10/08 06:38:19;;;;;;;11.73;1.92;;;;;;;31.38;22.23;99389.19;5062502;28;20024;-66
2022/10/08 06:40:44;;;;;;;4.15;2.13;;;;;;;31.52;21.98;99389.75;5046827;28;20036;-65
2022/10/08 06:43:17;;;;;;;8.93;3.92;;;;;;;31.78;22.31;99395.66;5062905;28;20029;-67
2022/10/08 06:45:43;;;;;;;7.82;3.65;;;;;;;31.94;22.31;99386.78;5031737;28;20041;-67
2022/10/08 06:48:09;;;;;;;9.65;2.60;;;;;;;32.19;21.90;99394.56;5045233;28;20155;-67
2022/10/08 06:50:34;;;;;;;12.07;3.50;;;;;;;32.84;22.93;99397.00;5063229;28;20032;-67
2022/10/08 06:53:00;;;;;;;5.75;2.50;;;;;;;33.41;21.14;99401.31;5046267;28;20028;-68
2022/10/08 06:55:25;;;;;;;6.65;2.58;;;;;;;33.86;20.58;99390.25;5061610;28;20093;-67
2022/10/08 06:57:51;;;;;;;6.65;2.40;;;;;;;34.28;19.91;99398.81;5046656;28;20028;-67
2022/10/08 07:00:17;;;;;;;4.97;2.92;;;;;;;34.78;19.25;99397.59;5045839;28;20111;-73
2022/10/08 07:02:43;;;;;;;5.78;2.80;;;;;;;35.23;19.08;99388.09;5045383;28;20028;-67
2022/10/08 07:05:09;;;;;;;6.78;2.20;;;;;;;35.61;18.63;99394.25;5049728;28;20400;-69
2022/10/08 07:07:34;;;;;;;5.65;1.73;;;;;;;35.86;17.95;99400.88;5045330;28;20036;-69
2022/10/08 07:10:00;;;;;;;7.05;2.53;;;;;;;35.89;18.15;99402.25;5063157;28;20068;-69
2022/10/08 07:12:25;;;;;;;12.60;3.00;;;;;;;35.80;18.28;99400.06;5046728;28;20052;-71
2022/10/08 07:14:51;;;;;;;6.47;2.20;;;;;;;35.58;18.41;99397.50;5028519;28;20133;-67
2022/10/08 07:17:16;;;;;;;3.97;2.30;;;;;;;35.46;18.69;99396.91;5053984;28;20102;-69
2022/10/08 07:19:46;;;;;;;6.20;1.90;;;;;;;35.22;18.49;99386.47;5048213;28;20024;-69
2022/10/08 07:22:12;;;;;;;4.68;2.35;;;;;;;35.09;18.61;99389.63;5045610;28;20025;-71
2022/10/08 07:24:38;;;;;;;6.47;2.50;;;;;;;35.04;18.77;99389.63;5030446;28;20036;-68
2022/10/08 07:27:03;;;;;;;5.30;2.60;;;;;;;35.03;18.74;99387.97;5044563;28;20036;-70
2022/10/08 07:29:29;;;;;;;8.85;2.60;;;;;;;35.03;18.84;99387.97;5062656;28;20024;-72
2022/10/08 07:31:54;;;;;;;9.63;2.28;;;;;;;34.96;18.87;99380.09;5062662;28;20500;-72
2022/10/08 07:34:20;;;;;;;5.97;1.95;;;;;;;34.77;18.71;99376.97;5030354;28;20040;-69
2022/10/08 07:36:45;;;;;;;4.07;1.90;;;;;;;34.77;18.87;99385.94;5046574;28;20049;-68
2022/10/08 07:39:12;;;;;;;6.53;3.70;;;;;;;34.75;18.82;99387.28;5062868;28;20024;-70
2022/10/08 07:41:38;;;;;;;5.15;2.03;;;;;;;34.76;19.37;99386.19;5029745;28;20048;-72
2022/10/08 07:44:04;;;;;;;5.53;2.00;;;;;;;34.78;18.48;99376.72;5044384;28;20047;-68
2022/10/08 07:46:31;;;;;;;7.22;2.67;;;;;;;34.87;19.00;99382.47;5063861;28;20027;-67
2022/10/08 07:49:03;;;;;;;4.70;2.35;;;;;;;34.99;18.55;99384.97;5044162;28;20152;-68
2022/10/08 07:51:30;;;;;;;6.22;2.85;;;;;;;35.13;18.39;99377.19;5044073;28;20025;-69
2022/10/08 07:53:56;;;;;;;4.40;2.47;;;;;;;35.18;17.81;99371.78;5029957;28;20044;-69
2022/10/08 07:56:22;;;;;;;6.07;2.13;;;;;;;35.22;18.14;99369.34;5044183;28;20472;-69
2022/10/08 07:58:47;;;;;;;8.77;1.63;;;;;;;35.01;17.16;99363.81;5062352;28;20059;-71
2022/10/08 08:01:14;;;;;;;5.28;2.85;;;;;;;34.79;17.32;99372.09;5027767;28;20108;-68
2022/10/08 08:03:40;;;;;;;4.65;2.00;;;;;;;34.74;17.19;99372.91;5027766;28;20119;-67
2022/10/08 08:06:11;;;;;;;5.57;1.90;;;;;;;34.76;16.71;99373.47;5031292;28;20139;-70
2022/10/08 08:08:38;;;;;;;5.18;1.90;;;;;;;34.84;17.24;99377.59;5044711;28;20091;-69
2022/10/08 08:11:04;;;;;;;6.60;1.90;;;;;;;34.85;17.56;99378.38;5046383;28;20031;-70
2022/10/08 08:13:30;;;;;;;5.15;2.35;;;;;;;34.84;17.23;99374.03;5026724;28;20028;-66
2022/10/08 08:16:00;;;;;;;5.63;1.73;;;;;;;34.88;17.99;99365.13;5028183;28;20067;-65
2022/10/08 08:18:30;;;;;;;7.07;1.80;;;;;;;34.75;17.90;99358.25;5026204;28;20642;-72
2022/10/08 08:20:59;;;;;;;5.55;2.38;;;;;;;34.56;18.10;99357.03;5046135;28;20503;-72
2022/10/08 08:23:29;;;;;;;7.45;1.95;;;;;;;34.46;18.08;99356.94;5027191;28;20027;-71
2022/10/08 08:25:55;;;;;;;2.55;1.77;;;;;;;34.46;18.76;99355.06;5045914;28;20036;-74
2022/10/08 08:28:22;;;;;;;4.25;1.95;;;;;;;34.57;18.77;99350.50;5040401;28;20036;-71
2022/10/08 08:30:47;;;;;;;7.30;2.08;;;;;;;34.61;19.11;99351.63;5042616;28;20028;-73
2022/10/08 08:33:13;;;;;;;5.03;1.70;;;;;;;33.69;19.90;99352.41;5029330;28;20400;-73
2022/10/08 08:35:39;;;;;;;8.90;2.53;;;;;;;33.70;19.72;99345.13;5061517;28;20033;-71
2022/10/08 08:38:04;;;;;;;4.63;1.90;;;;;;;33.05;20.27;99352.97;5061430;28;20029;-74
2022/10/08 08:40:30;;;;;;;4.97;2.08;;;;;;;32.46;20.98;99340.72;5041961;28;20481;-74
2022/10/08 08:42:55;;;;;;;4.53;2.00;;;;;;;32.27;21.87;99342.03;5029021;28;20091;-71
2022/10/08 08:45:25;;;;;;;3.72;1.95;;;;;;;31.94;21.46;99351.69;5028777;28;20115;-70
2022/10/08 08:48:05;;;;;;;4.03;1.70;;;;;;;31.69;22.28;99344.78;5058985;28;20017;-73
2022/10/08 08:50:33;;;;;;;4.38;2.00;;;;;;;32.18;21.55;99336.22;5059152;28;20108;-75
2022/10/08 08:52:59;;;;;;;14.35;3.92;;;;;;;32.38;20.71;99333.03;5028889;28;20519;-72
2022/10/08 08:55:42;;;;;;;11.77;2.30;;;;;;;32.82;21.34;99335.06;5042571;28;20107;-72
2022/10/08 08:58:16;;;;;;;6.53;1.60;;;;;;;33.15;20.01;99327.94;5045084;28;20084;-76
2022/10/08 09:00:44;;;;;;;4.20;1.80;;;;;;;33.43;19.77;99329.66;5044272;28;20211;-74
2022/10/08 09:03:15;;;;;;;6.97;4.18;;;;;;;33.65;19.84;99320.69;5027925;28;20025;-72
2022/10/08 09:05:43;;;;;;;6.50;2.00;;;;;;;33.70;19.67;99318.88;5044693;28;20033;-72
2022/10/08 09:08:11;;;;;;;11.57;2.90;;;;;;;33.92;26.03;99320.69;5042306;28;20029;-75
2022/10/08 09:11:01;;;;;;;12.35;2.17;;;;;;;34.25;19.63;99325.09;5061389;28;20029;-73
2022/10/08 09:13:31;;;;;;;5.18;1.63;;;;;;;34.49;18.58;99319.31;5059822;28;20032;-76
2022/10/08 09:15:56;;;;;;;5.97;1.80;;;;;;;34.54;18.25;99321.25;5047880;28;20492;-76
2022/10/08 09:18:22;;;;;;;2.63;1.60;;;;;;;34.48;17.22;99308.72;5043429;28;20052;-75
2022/10/08 09:20:47;;;;;;;2.58;1.67;;;;;;;34.16;17.81;99312.22;5043545;28;20189;-70
2022/10/08 09:23:15;;;;;;;5.10;1.77;;;;;;;34.36;18.06;99304.28;5057684;28;20028;-71
2022/10/08 09:25:41;;;;;;;6.60;1.67;;;;;;;34.20;17.80;99300.63;5042909;28;20127;-78
2022/10/08 09:28:06;;;;;;;6.70;1.60;;;;;;;34.34;18.83;99297.53;5010071;28;20060;-68
2022/10/08 09:30:35;;;;;;;4.13;1.63;;;;;;;34.53;17.89;99292.50;5039963;28;20040;-72
2022/10/08 09:33:12;;;;;;;5.63;1.60;;;;;;;34.49;18.42;99281.38;5009023;28;20037;-79
2022/10/08 09:35:48;;;;;;;;;;;;;;;34.39;19.22;99286.72;5058933;28;20092;-72
2022/10/08 09:38:26;;;;;;;6.05;1.55;;;;;;;34.37;17.61;99283.44;5027184;28;20393;-72
2022/10/08 09:41:02;;;;;;;4.57;1.33;;;;;;;34.22;17.28;99271.41;5009985;28;20036;-71
2022/10/08 09:43:28;;;;;;;6.30;1.65;;;;;;;34.11;18.31;99269.69;5023983;28;20843;-68
2022/10/08 09:45:54;;;;;;;2.60;1.38;;;;;;;34.12;18.45;99271.31;5043499;28;20155;-69
2022/10/08 09:48:27;;;;;;;4.50;1.80;;;;;;;33.89;18.05;99262.47;5043197;28;20545;-69
2022/10/08 09:50:54;;;;;;;3.85;1.40;;;;;;;33.38;17.85;99267.34;5038847;28;20040;-67
2022/10/08 09:53:20;;;;;;;7.53;1.90;;;;;;;32.54;19.01;99255.72;5044033;28;20120;-69
2022/10/08 09:55:53;;;;;;;7.38;1.50;;;;;;;31.92;19.46;99257.44;5058726;28;20024;-73
2022/10/08 09:58:19;;;;;;;10.95;2.05;;;;;;;32.33;19.83;99262.72;5044975;28;20040;-73
2022/10/08 10:00:44;;;;;;;6.57;1.63;;;;;;;32.53;19.86;99251.41;5041926;28;20029;-76
2022/10/08 10:03:16;;;;;;;6.18;1.60;;;;;;;32.71;20.17;99250.31;5060153;28;20029;-73
2022/10/08 10:05:41;;;;;;;7.40;1.50;;;;;;;32.76;20.35;99250.38;5027508;28;20017;-74
2022/10/08 10:08:33;;;;;;;5.53;1.65;;;;;;;32.71;19.56;99238.69;5044082;28;20055;-69
2022/10/08 10:10:58;;;;;;;8.10;1.50;;;;;;;32.56;20.15;99231.16;5044597;28;20107;-70
2022/10/08 10:13:42;;;;;;;6.80;1.40;;;;;;;32.38;20.46;99240.38;5041576;28;20081;-69
2022/10/08 10:16:07;;;;;;;2.47;1.40;;;;;;;32.31;20.67;99229.75;5043993;28;20107;-69
2022/10/08 10:18:38;;;;;;;4.07;1.45;;;;;;;32.24;21.19;99221.78;5057864;28;20076;-69
2022/10/08 10:21:05;;;;;;;2.97;1.30;;;;;;;32.15;21.71;99219.75;5042325;28;20020;-70
2022/10/08 10:23:51;;;;;;;3.40;1.55;;;;;;;32.27;21.45;99217.78;5034897;28;20032;-73
2022/10/08 10:26:28;;;;;;;9.57;1.67;;;;;;;32.30;21.10;99224.59;5060562;28;20083;-72
2022/10/08 10:28:58;;;;;;;13.45;2.08;;;;;;;32.17;22.09;99214.94;5044122;28;20485;-72
2022/10/08 10:31:31;;;;;;;33.53;9.00;;;;;;;32.05;30.02;99212.28;5043886;28;20102;-73
2022/10/08 10:34:16;;;;;;;9.57;2.05;;;;;;;32.17;23.70;99217.66;5049867;28;20029;-71
2022/10/08 10:36:49;;;;;;;16.48;2.88;;;;;;;32.12;27.80;99206.75;5059322;28;20029;-71
2022/10/08 10:39:18;;;;;;;5.30;1.83;;;;;;;32.16;22.10;99199.81;5027419;28;20044;-70
2022/10/08 10:41:49;;;;;;;9.55;2.05;;;;;;;32.14;23.01;99202.75;5059713;28;20511;-73
2022/10/08 10:44:18;;;;;;;23.55;4.90;;;;;;;32.12;25.47;99204.88;5059185;28;20017;-71
2022/10/08 10:46:48;;;;;;;9.80;1.88;;;;;;;32.13;22.52;99189.50;5058162;28;20087;-71
2022/10/08 10:49:16;;;;;;;6.40;1.50;;;;;;;31.86;21.26;99185.53;5043098;28;20029;-71
2022/10/08 10:52:09;;;;;;;8.38;1.95;;;;;;;31.83;22.06;99180.63;5043758;28;20385;-74
2022/10/08 10:54:57;;;;;;;8.90;1.40;;;;;;;31.77;21.44;99178.94;5039006;28;20040;-68
2022/10/08 10:57:49;;;;;;;4.65;1.50;;;;;;;31.65;22.26;99175.50;5059463;28;20475;-70
2022/10/08 11:00:21;;;;;;;5.63;1.60;;;;;;;31.46;22.07;99156.00;5058019;28;20033;-72
2022/10/08 11:02:57;;;;;;;4.00;1.48;;;;;;;31.41;21.97;99150.50;5057544;28;20047;-71
2022/10/08 11:05:25;;;;;;;2.05;1.23;;;;;;;31.29;21.92;99154.09;5062884;28;20108;-72
2022/10/08 11:08:03;;;;;;;;;;;;;;;31.12;20.77;99150.53;5030457;28;20035;-71
2022/10/08 11:10:38;;;;;;;3.60;1.20;;;;;;;30.77;21.16;99144.19;5048686;28;19920;-72
2022/10/08 11:13:33;;;;;;;4.85;1.20;;;;;;;30.61;21.41;99134.19;5062545;28;20032;-72
2022/10/08 11:16:17;;;;;;;3.95;1.58;;;;;;;30.21;21.80;99137.63;5062232;28;20495;-71
2022/10/08 11:18:53;;;;;;;3.28;1.33;;;;;;;29.96;23.05;99130.63;5063386;28;20051;-72
2022/10/08 11:21:42;;;;;;;3.53;1.30;;;;;;;30.05;24.29;99134.59;5031556;28;20609;-73
2022/10/08 11:24:30;;;;;;;8.18;1.50;;;;;;;30.11;29.87;99125.59;5062794;28;20150;-73
2022/10/08 11:27:03;;;;;;;4.40;1.40;;;;;;;30.17;28.46;99134.56;5063711;28;20024;-69
2022/10/08 11:29:34;;;;;;;4.70;1.40;;;;;;;30.18;26.93;99130.03;5052277;28;20041;-70
2022/10/08 11:31:59;;;;;;;8.98;1.35;;;;;;;30.16;25.88;99124.88;5045474;28;20063;-70
2022/10/08 11:34:37;;;;;;;6.18;1.38;;;;;;;30.09;25.71;99116.94;5062240;28;20037;-68
2022/10/08 11:37:11;;;;;;;4.70;1.10;;;;;;;30.07;25.97;99119.03;5030144;28;20032;-67
2022/10/08 11:39:44;;;;;;;5.22;1.27;;;;;;;29.97;25.60;99096.44;5064014;28;20032;-73
2022/10/08 11:42:30;;;;;;;7.57;1.45;;;;;;;30.07;26.11;99112.84;5047465;28;20025;-73